createdAt,value
2022-08-16T00:00:45.705Z,6.97
2022-08-16T00:03:14.688Z,5.60
2022-08-16T00:05:48.304Z,7.10
2022-08-16T00:08:36.795Z,7.35
2022-08-16T00:11:15.507Z,7.07
2022-08-16T00:13:53.645Z,7.88
2022-08-16T00:17:01.350Z,7.45
2022-08-16T00:19:15.143Z,7.03
2022-08-16T00:21:43.618Z,7.25
2022-08-16T00:24:12.245Z,7.60
2022-08-16T00:26:44.099Z,6.68
2022-08-16T00:29:15.586Z,7.13
2022-08-16T00:32:00.346Z,7.93
2022-08-16T00:34:44.374Z,6.50
2022-08-16T00:37:20.879Z,7.65
2022-08-16T00:39:57.361Z,7.13
2022-08-16T00:42:31.718Z,7.15
2022-08-16T00:45:08.741Z,7.47
2022-08-16T00:47:39.339Z,6.53
2022-08-16T00:50:11.618Z,7.50
2022-08-16T00:52:45.939Z,7.13
2022-08-16T00:55:22.157Z,7.07
2022-08-16T00:58:00.214Z,7.18
2022-08-16T01:00:30.157Z,7.78
2022-08-16T01:02:59.724Z,7.15
2022-08-16T01:05:27.662Z,6.68
2022-08-16T01:07:55.272Z,7.15
2022-08-16T01:10:32.932Z,7.10
2022-08-16T01:13:12.477Z,6.90
2022-08-16T01:15:47.350Z,7.45
2022-08-16T01:18:39.199Z,7.97
2022-08-16T01:21:16.394Z,8.15
2022-08-16T01:24:00.737Z,8.60
2022-08-16T01:26:34.299Z,7.55
2022-08-16T01:29:06.577Z,7.43
2022-08-16T01:31:37.530Z,7.95
2022-08-16T01:34:25.150Z,7.85
2022-08-16T01:37:07.991Z,8.70
2022-08-16T01:39:36.494Z,9.20
2022-08-16T01:42:12.089Z,8.32
2022-08-16T01:44:40.801Z,8.55
2022-08-16T01:47:08.980Z,8.15
2022-08-16T01:49:45.364Z,8.35
2022-08-16T01:52:29.564Z,8.40
2022-08-16T01:54:58.143Z,8.90
2022-08-16T01:57:27.288Z,8.95
2022-08-16T01:59:54.996Z,9.10
2022-08-16T02:02:28.401Z,8.80
2022-08-16T02:04:57.501Z,8.75
2022-08-16T02:07:25.553Z,9.30
2022-08-16T02:09:58.842Z,7.97
2022-08-16T02:12:50.274Z,8.63
2022-08-16T02:15:24.884Z,8.50
2022-08-16T02:17:54.621Z,8.40
2022-08-16T02:20:26.381Z,9.18
2022-08-16T02:22:58.667Z,8.65
2022-08-16T02:25:50.781Z,9.00
2022-08-16T02:28:17.256Z,8.45
2022-08-16T02:30:50.872Z,10.07
2022-08-16T02:33:24.950Z,9.55
2022-08-16T02:36:09.809Z,8.10
2022-08-16T02:38:41.908Z,8.48
2022-08-16T02:41:10.068Z,8.98
2022-08-16T02:43:39.634Z,9.02
2022-08-16T02:46:08.116Z,8.25
2022-08-16T02:48:36.096Z,8.65
2022-08-16T02:51:10.977Z,8.48
2022-08-16T02:53:43.014Z,8.52
2022-08-16T02:56:15.110Z,9.48
2022-08-16T02:58:44.139Z,8.88
2022-08-16T03:01:24.387Z,9.32
2022-08-16T03:04:39.375Z,8.48
2022-08-16T03:06:47.592Z,8.98
2022-08-16T03:09:16.383Z,8.60
2022-08-16T03:11:44.747Z,8.43
2022-08-16T03:14:12.074Z,9.02
2022-08-16T03:16:42.254Z,8.07
2022-08-16T03:19:27.159Z,7.95
2022-08-16T03:22:19.156Z,8.63
2022-08-16T03:24:57.332Z,8.85
2022-08-16T03:27:25.880Z,9.43
2022-08-16T03:30:16.508Z,8.73
2022-08-16T03:32:47.290Z,8.45
2022-08-16T03:35:18.526Z,8.55
2022-08-16T03:40:32.946Z,8.10
2022-08-16T03:43:19.847Z,8.15
2022-08-16T03:45:48.402Z,7.90
2022-08-16T03:48:18.355Z,6.90
2022-08-16T03:50:59.818Z,5.95
2022-08-16T03:53:38.012Z,6.80
2022-08-16T03:56:07.925Z,7.05
2022-08-16T03:58:37.029Z,6.70
2022-08-16T04:01:04.773Z,7.15
2022-08-16T04:03:32.761Z,7.55
2022-08-16T04:06:00.240Z,6.97
2022-08-16T04:08:31.274Z,7.70
2022-08-16T04:11:03.679Z,7.85
2022-08-16T04:14:01.618Z,7.03
2022-08-16T04:16:27.535Z,7.07
2022-08-16T04:19:01.938Z,6.63
2022-08-16T04:21:34.527Z,7.43
2022-08-16T04:24:02.782Z,6.38
2022-08-16T04:26:30.741Z,6.15
2022-08-16T04:29:16.994Z,6.70
2022-08-16T04:31:56.924Z,6.50
2022-08-16T04:34:27.327Z,6.10
2022-08-16T04:36:55.132Z,7.15
2022-08-16T04:39:24.486Z,6.63
2022-08-16T04:42:11.258Z,6.55
2022-08-16T04:44:54.011Z,6.57
2022-08-16T04:47:31.469Z,6.47
2022-08-16T04:50:05.553Z,6.28
2022-08-16T04:52:35.810Z,5.95
2022-08-16T04:55:11.954Z,5.72
2022-08-16T04:57:41.210Z,6.18
2022-08-16T05:00:30.266Z,5.70
2022-08-16T05:05:44.898Z,6.05
2022-08-16T05:08:29.199Z,5.63
2022-08-16T05:11:05.553Z,5.93
2022-08-16T05:13:40.674Z,6.35
2022-08-16T05:16:16.623Z,5.70
2022-08-16T05:18:48.507Z,6.20
2022-08-16T05:21:15.833Z,5.43
2022-08-16T05:23:51.591Z,5.97
2022-08-16T05:26:24.995Z,6.35
2022-08-16T05:28:58.279Z,5.72
2022-08-16T05:31:30.387Z,6.93
2022-08-16T05:33:59.722Z,5.97
2022-08-16T05:36:34.230Z,6.40
2022-08-16T05:39:08.838Z,6.72
2022-08-16T05:41:44.788Z,7.47
2022-08-16T05:44:23.121Z,6.45
2022-08-16T05:46:54.833Z,7.20
2022-08-16T05:49:23.151Z,7.25
2022-08-16T05:51:50.890Z,7.10
2022-08-16T05:54:25.273Z,6.65
2022-08-16T05:56:53.568Z,7.57
2022-08-16T05:59:22.272Z,7.72
2022-08-16T06:01:52.158Z,9.00
2022-08-16T06:04:35.425Z,7.80
2022-08-16T06:07:08.943Z,8.38
2022-08-16T06:09:52.536Z,8.00
2022-08-16T06:12:27.517Z,8.85
2022-08-16T06:14:59.310Z,9.65
2022-08-16T06:17:41.782Z,10.35
2022-08-16T06:20:23.494Z,10.13
2022-08-16T06:22:57.740Z,10.27
2022-08-16T06:25:35.414Z,11.30
2022-08-16T06:28:08.352Z,11.05
2022-08-16T06:30:43.996Z,10.88
2022-08-16T06:33:22.177Z,11.02
2022-08-16T06:35:55.196Z,11.05
2022-08-16T06:38:33.456Z,11.40
2022-08-16T06:41:04.216Z,12.20
2022-08-16T06:43:32.218Z,13.30
2022-08-16T06:46:00.307Z,12.82
2022-08-16T06:48:33.185Z,12.25
2022-08-16T06:51:05.647Z,13.23
2022-08-16T06:53:36.717Z,13.45
2022-08-16T06:56:14.590Z,13.80
2022-08-16T06:58:52.290Z,12.65
2022-08-16T07:01:43.105Z,14.07
2022-08-16T07:04:12.008Z,13.65
2022-08-16T07:06:43.247Z,13.40
2022-08-16T07:09:15.844Z,14.32
2022-08-16T07:11:46.042Z,14.55
2022-08-16T07:14:24.568Z,14.10
2022-08-16T07:16:58.126Z,13.63
2022-08-16T07:20:02.034Z,14.50
2022-08-16T07:22:37.548Z,13.90
2022-08-16T07:25:02.782Z,15.27
2022-08-16T07:27:33.559Z,16.00
2022-08-16T07:30:01.062Z,16.48
2022-08-16T07:32:29.681Z,15.18
2022-08-16T07:34:59.082Z,13.93
2022-08-16T07:37:26.398Z,13.20
2022-08-16T07:39:54.780Z,14.32
2022-08-16T07:42:28.311Z,14.63
2022-08-16T07:45:10.036Z,14.35
2022-08-16T07:47:37.794Z,13.50
2022-08-16T07:50:07.568Z,14.63
2022-08-16T07:52:38.909Z,14.30
2022-08-16T07:55:07.490Z,13.95
2022-08-16T07:57:38.086Z,12.35
2022-08-16T08:00:26.395Z,10.50
2022-08-16T08:02:55.592Z,10.45
2022-08-16T08:05:25.516Z,11.07
2022-08-16T08:08:11.958Z,12.45
2022-08-16T08:10:52.310Z,12.68
2022-08-16T08:13:19.734Z,13.30
2022-08-16T08:16:07.130Z,14.20
2022-08-16T08:18:50.549Z,12.85
2022-08-16T08:21:27.526Z,13.75
2022-08-16T08:24:15.229Z,12.75
2022-08-16T08:26:43.028Z,13.93
2022-08-16T08:29:10.490Z,15.70
2022-08-16T08:31:42.281Z,14.68
2022-08-16T08:34:09.670Z,14.53
2022-08-16T08:36:40.210Z,14.60
2022-08-16T08:39:12.498Z,14.13
2022-08-16T08:41:42.296Z,13.38
2022-08-16T08:44:28.690Z,12.45
2022-08-16T08:47:05.604Z,11.15
2022-08-16T08:49:46.211Z,11.55
2022-08-16T08:52:34.498Z,11.85
2022-08-16T08:55:10.674Z,11.68
2022-08-16T08:57:42.351Z,12.38
2022-08-16T09:02:45.533Z,11.85
2022-08-16T09:05:21.006Z,11.05
2022-08-16T09:08:00.351Z,11.55
2022-08-16T09:10:30.410Z,10.18
2022-08-16T09:12:58.752Z,9.80
2022-08-16T09:15:32.597Z,10.52
2022-08-16T09:18:24.987Z,8.77
2022-08-16T09:20:59.625Z,9.07
2022-08-16T09:23:29.356Z,8.60
2022-08-16T09:25:57.524Z,9.07
2022-08-16T09:29:13.975Z,8.18
2022-08-16T09:31:16.307Z,8.27
2022-08-16T09:33:44.101Z,8.43
2022-08-16T09:36:32.304Z,7.85
2022-08-16T09:38:59.845Z,7.53
2022-08-16T09:41:28.132Z,7.38
2022-08-16T09:43:59.648Z,7.32
2022-08-16T09:46:45.025Z,7.15
2022-08-16T09:49:16.775Z,7.38
2022-08-16T09:51:49.660Z,7.35
2022-08-16T09:54:20.859Z,7.13
2022-08-16T09:56:52.673Z,7.00
2022-08-16T09:59:25.242Z,7.68
2022-08-16T10:01:54.547Z,7.50
2022-08-16T10:04:31.193Z,7.18
2022-08-16T10:09:55.443Z,7.90
2022-08-16T10:12:46.197Z,7.25
2022-08-16T10:15:17.237Z,10.55
2022-08-16T10:18:00.267Z,11.80
2022-08-16T10:20:31.668Z,12.35
2022-08-16T10:23:06.773Z,12.43
2022-08-16T10:27:03.703Z,10.43
2022-08-16T10:28:29.336Z,8.90
2022-08-16T10:31:03.637Z,7.93
2022-08-16T10:33:34.012Z,7.70
2022-08-16T10:36:04.447Z,7.40
2022-08-16T10:38:37.676Z,8.75
2022-08-16T10:41:07.138Z,8.35
2022-08-16T10:43:35.849Z,9.52
2022-08-16T10:46:40.062Z,9.98
2022-08-16T10:48:52.432Z,10.57
2022-08-16T10:51:19.863Z,10.75
2022-08-16T10:54:01.251Z,11.30
2022-08-16T10:56:55.951Z,10.75
2022-08-16T10:59:39.134Z,10.70
2022-08-16T11:05:08.841Z,11.80
2022-08-16T11:07:51.485Z,10.25
2022-08-16T11:12:49.197Z,11.40
2022-08-16T11:15:20.903Z,10.63
2022-08-16T11:18:48.781Z,10.38
2022-08-16T11:20:41.900Z,10.60
2022-08-16T11:23:11.378Z,10.35
2022-08-16T11:31:13.808Z,10.80
2022-08-16T11:33:56.349Z,10.43
2022-08-16T11:36:28.002Z,10.60
2022-08-16T11:39:00.177Z,10.77
2022-08-16T11:41:29.389Z,10.75
2022-08-16T11:44:00.112Z,9.82
2022-08-16T11:46:44.117Z,9.80
2022-08-16T11:49:14.205Z,9.85
2022-08-16T11:51:44.424Z,9.75
2022-08-16T11:54:20.834Z,8.98
2022-08-16T11:56:57.002Z,9.73
2022-08-16T11:59:28.819Z,8.15
2022-08-16T12:02:30.746Z,9.20
2022-08-16T12:04:52.007Z,9.48
2022-08-16T12:07:21.201Z,8.57
2022-08-16T12:09:53.116Z,8.45
2022-08-16T12:12:23.493Z,7.82
2022-08-16T12:15:00.099Z,8.18
2022-08-16T12:17:31.658Z,7.65
2022-08-16T12:22:46.434Z,6.80
2022-08-16T12:25:15.460Z,6.80
2022-08-16T12:27:42.945Z,6.70
2022-08-16T12:30:21.804Z,6.53
2022-08-16T12:32:56.510Z,6.75
2022-08-16T12:35:25.660Z,5.85
2022-08-16T12:37:56.699Z,5.70
2022-08-16T12:40:29.254Z,5.93
2022-08-16T12:42:58.471Z,5.97
2022-08-16T12:45:28.321Z,5.78
2022-08-16T12:51:02.671Z,5.47
2022-08-16T12:53:31.743Z,5.13
2022-08-16T12:56:00.167Z,5.35
2022-08-16T12:58:48.733Z,5.57
2022-08-16T13:01:15.000Z,5.18
2022-08-16T13:03:43.622Z,5.43
2022-08-16T13:06:12.561Z,5.20
2022-08-16T13:08:40.503Z,5.60
2022-08-16T13:11:08.098Z,6.07
2022-08-16T13:13:35.506Z,5.57
2022-08-16T13:16:10.793Z,5.63
2022-08-16T13:18:43.243Z,4.82
2022-08-16T13:21:18.986Z,5.25
2022-08-16T13:23:51.079Z,4.78
2022-08-16T13:26:20.914Z,5.35
2022-08-16T13:28:48.561Z,5.60
2022-08-16T13:31:16.745Z,5.43
2022-08-16T13:33:44.428Z,4.85
2022-08-16T13:36:21.259Z,5.25
2022-08-16T13:39:00.206Z,4.93
2022-08-16T13:41:30.153Z,5.10
2022-08-16T13:44:00.911Z,4.63
2022-08-16T13:46:32.505Z,5.22
2022-08-16T13:49:00.388Z,4.57
2022-08-16T13:51:29.256Z,5.78
2022-08-16T13:54:02.624Z,5.50
2022-08-16T13:56:37.653Z,5.03
2022-08-16T13:59:20.027Z,5.00
2022-08-16T14:04:26.583Z,4.40
2022-08-16T14:06:56.296Z,4.78
2022-08-16T14:09:24.089Z,4.57
2022-08-16T14:11:53.379Z,5.00
2022-08-16T14:14:28.341Z,5.45
2022-08-16T14:17:00.566Z,5.22
2022-08-16T14:19:29.301Z,4.72
2022-08-16T14:22:13.740Z,4.97
2022-08-16T14:24:45.074Z,5.30
2022-08-16T14:27:16.217Z,4.85
2022-08-16T14:29:49.481Z,4.43
2022-08-16T14:32:27.125Z,4.30
2022-08-16T14:35:02.546Z,3.95
2022-08-16T14:37:31.820Z,4.30
2022-08-16T14:39:59.582Z,4.28
2022-08-16T14:42:27.258Z,4.28
2022-08-16T14:44:54.816Z,4.65
2022-08-16T14:47:22.627Z,3.90
2022-08-16T14:49:52.460Z,4.63
2022-08-16T14:52:44.480Z,4.57
2022-08-16T14:55:09.797Z,4.15
2022-08-16T14:57:39.749Z,3.90
2022-08-16T15:00:09.583Z,4.10
2022-08-16T15:02:39.266Z,4.10
2022-08-16T15:05:08.631Z,3.90
2022-08-16T15:07:36.971Z,4.15
2022-08-16T15:10:21.510Z,3.58
2022-08-16T15:12:56.339Z,3.83
2022-08-16T15:15:27.649Z,4.25
2022-08-16T15:17:56.724Z,4.13
2022-08-16T15:20:35.250Z,4.43
2022-08-16T15:23:04.457Z,3.97
2022-08-16T15:25:42.730Z,4.00
2022-08-16T15:28:30.918Z,3.88
2022-08-16T15:31:04.059Z,4.43
2022-08-16T15:33:33.082Z,4.65
2022-08-16T15:36:00.505Z,4.25
2022-08-16T15:38:55.087Z,4.50
2022-08-16T15:41:35.901Z,4.38
2022-08-16T15:44:10.384Z,4.13
2022-08-16T15:46:56.437Z,5.07
2022-08-16T15:49:34.504Z,4.68
2022-08-16T15:52:29.421Z,4.70
2022-08-16T15:55:07.490Z,4.72
2022-08-16T15:57:49.106Z,4.32
2022-08-16T16:00:20.728Z,4.47
2022-08-16T16:02:49.543Z,4.07
2022-08-16T16:05:18.948Z,4.22
2022-08-16T16:07:56.416Z,4.50
2022-08-16T16:10:37.328Z,4.15
2022-08-16T16:13:08.825Z,4.40
2022-08-16T16:15:39.297Z,4.40
2022-08-16T16:18:10.277Z,4.47
2022-08-16T16:20:46.279Z,3.67
2022-08-16T16:23:15.492Z,4.45
2022-08-16T16:25:46.006Z,4.63
2022-08-16T16:29:06.130Z,4.60
2022-08-16T16:31:12.050Z,4.55
2022-08-16T16:33:43.326Z,4.72
2022-08-16T16:36:13.589Z,4.50
2022-08-16T16:38:44.192Z,4.10
2022-08-16T16:41:12.027Z,4.80
2022-08-16T16:43:41.358Z,4.07
2022-08-16T16:46:42.544Z,4.55
2022-08-16T16:48:57.314Z,4.80
2022-08-16T16:51:27.941Z,4.70
2022-08-16T16:53:56.884Z,4.22
2022-08-16T16:56:32.238Z,4.55
2022-08-16T16:59:04.492Z,4.50
2022-08-16T17:02:00.460Z,4.55
2022-08-16T17:04:31.711Z,5.47
2022-08-16T17:07:01.736Z,4.25
2022-08-16T17:09:29.504Z,4.25
2022-08-16T17:11:57.093Z,4.75
2022-08-16T17:17:13.232Z,4.55
2022-08-16T17:19:41.814Z,4.43
2022-08-16T17:22:13.880Z,4.43
2022-08-16T17:24:44.921Z,4.18
2022-08-16T17:27:17.915Z,4.47
2022-08-16T17:29:51.486Z,4.65
2022-08-16T17:32:33.606Z,4.95
2022-08-16T17:35:18.450Z,4.70
2022-08-16T17:37:51.040Z,4.32
2022-08-16T17:39:26.340Z,4.90
2022-08-16T17:40:45.903Z,4.60
2022-08-16T17:43:13.403Z,4.45
2022-08-16T17:45:42.461Z,4.60
2022-08-16T17:48:09.954Z,4.88
2022-08-16T17:50:37.625Z,4.40
2022-08-16T17:53:05.127Z,4.30
2022-08-16T17:55:35.221Z,4.30
2022-08-16T17:58:20.951Z,4.72
2022-08-16T18:00:52.331Z,4.05
2022-08-16T18:04:08.484Z,4.82
2022-08-16T18:06:17.199Z,4.60
2022-08-16T18:08:48.593Z,4.72
2022-08-16T18:11:18.313Z,4.43
2022-08-16T18:13:46.320Z,5.18
2022-08-16T18:16:16.530Z,4.80
2022-08-16T18:18:44.430Z,4.60
2022-08-16T18:21:30.836Z,5.00
2022-08-16T18:23:58.235Z,4.63
2022-08-16T18:26:25.614Z,5.63
2022-08-16T18:28:52.976Z,4.95
2022-08-16T18:31:20.282Z,5.57
2022-08-16T18:33:47.616Z,5.10
2022-08-16T18:36:20.535Z,4.82
2022-08-16T18:38:49.594Z,4.90
2022-08-16T18:41:17.631Z,5.70
2022-08-16T18:44:23.466Z,5.35
2022-08-16T18:46:32.465Z,6.13
2022-08-16T18:48:59.959Z,5.95
2022-08-16T18:51:27.261Z,5.40
2022-08-16T18:53:54.524Z,5.93
2022-08-16T18:56:21.805Z,6.05
2022-08-16T18:58:49.104Z,5.72
2022-08-16T19:01:16.436Z,5.25
2022-08-16T19:03:43.727Z,5.93
2022-08-16T19:06:14.024Z,5.72
2022-08-16T19:08:43.841Z,5.32
2022-08-16T19:11:15.656Z,5.32
2022-08-16T19:13:45.702Z,5.20
2022-08-16T19:16:13.161Z,5.90
2022-08-16T19:18:40.731Z,5.68
2022-08-16T19:21:08.746Z,6.25
2022-08-16T19:23:37.086Z,6.20
2022-08-16T19:26:07.083Z,6.38
2022-08-16T19:28:51.498Z,6.45
2022-08-16T19:31:29.158Z,6.63
2022-08-16T19:33:56.879Z,6.43
2022-08-16T19:36:31.305Z,6.40
2022-08-16T19:39:04.581Z,7.70
2022-08-16T19:41:36.816Z,6.10
2022-08-16T19:44:04.777Z,5.93
2022-08-16T19:46:32.225Z,6.00
2022-08-16T19:49:00.901Z,5.45
2022-08-16T19:51:28.300Z,6.50
2022-08-16T19:53:55.718Z,5.50
2022-08-16T19:56:25.631Z,5.90
2022-08-16T19:59:18.258Z,6.05
2022-08-16T20:01:42.797Z,5.90
2022-08-16T20:04:12.760Z,5.80
2022-08-16T20:06:41.666Z,6.32
2022-08-16T20:09:10.362Z,6.40
2022-08-16T20:11:43.941Z,6.97
2022-08-16T20:14:11.648Z,5.78
2022-08-16T20:16:47.025Z,5.60
2022-08-16T20:19:14.384Z,5.70
2022-08-16T20:21:41.704Z,5.50
2022-08-16T20:24:32.869Z,6.25
2022-08-16T20:26:56.836Z,6.38
2022-08-16T20:29:24.161Z,7.90
2022-08-16T20:31:51.542Z,9.00
2022-08-16T20:34:18.998Z,10.63
2022-08-16T20:36:46.270Z,8.73
2022-08-16T20:39:13.612Z,8.07
2022-08-16T20:41:42.004Z,7.50
2022-08-16T20:44:10.267Z,6.82
2022-08-16T20:46:39.126Z,6.95
2022-08-16T20:49:09.269Z,7.38
2022-08-16T20:51:50.953Z,7.80
2022-08-16T20:54:19.507Z,7.47
2022-08-16T20:56:46.957Z,7.18
2022-08-16T20:59:14.307Z,6.45
2022-08-16T21:01:46.987Z,6.85
2022-08-16T21:04:19.312Z,6.82
2022-08-16T21:06:53.410Z,6.60
2022-08-16T21:09:24.212Z,5.85
2022-08-16T21:11:52.985Z,6.18
2022-08-16T21:14:20.305Z,6.13
2022-08-16T21:16:48.404Z,6.68
2022-08-16T21:19:15.791Z,5.88
2022-08-16T21:21:43.155Z,6.20
2022-08-16T21:24:10.539Z,5.70
2022-08-16T21:26:39.080Z,6.25
2022-08-16T21:29:11.143Z,5.88
2022-08-16T21:31:41.662Z,6.35
2022-08-16T21:34:09.117Z,5.95
2022-08-16T21:36:37.554Z,5.82
2022-08-16T21:39:05.973Z,5.55
2022-08-16T21:41:34.897Z,5.60
2022-08-16T21:44:02.260Z,5.45
2022-08-16T21:46:29.785Z,6.10
2022-08-16T21:48:57.168Z,5.75
2022-08-16T21:51:24.458Z,6.00
2022-08-16T21:53:51.763Z,5.97
2022-08-16T21:56:19.118Z,6.20
2022-08-16T21:58:46.631Z,6.32
2022-08-16T22:01:24.247Z,5.45
2022-08-16T22:04:01.729Z,6.20
2022-08-16T22:06:39.256Z,5.80
2022-08-16T22:09:06.915Z,5.70
2022-08-16T22:11:34.212Z,5.43
2022-08-16T22:14:01.687Z,5.70
2022-08-16T22:16:33.724Z,6.32
2022-08-16T22:19:01.320Z,6.10
2022-08-16T22:21:28.895Z,5.97
2022-08-16T22:23:57.446Z,5.20
2022-08-16T22:26:29.884Z,5.88
2022-08-16T22:29:00.476Z,6.13
2022-08-16T22:31:28.267Z,5.60
2022-08-16T22:33:56.777Z,5.63
2022-08-16T22:36:28.612Z,5.63
2022-08-16T22:39:00.071Z,5.13
2022-08-16T22:41:28.186Z,5.85
2022-08-16T22:43:55.876Z,5.90
2022-08-16T22:46:23.432Z,5.43
2022-08-16T22:48:50.948Z,5.32
2022-08-16T22:51:19.539Z,5.53
2022-08-16T22:53:46.810Z,5.60
2022-08-16T22:56:15.668Z,5.70
2022-08-16T22:58:43.794Z,6.03
2022-08-16T23:01:12.203Z,5.95
2022-08-16T23:03:40.429Z,5.78
2022-08-16T23:06:08.812Z,5.13
2022-08-16T23:08:40.580Z,6.00
2022-08-16T23:11:22.988Z,5.45
2022-08-16T23:13:54.724Z,5.72
2022-08-16T23:16:24.917Z,5.72
2022-08-16T23:19:00.652Z,5.80
2022-08-16T23:21:27.972Z,6.00
2022-08-16T23:23:55.241Z,5.85
2022-08-16T23:26:45.141Z,6.20
2022-08-16T23:29:15.557Z,5.70
2022-08-16T23:31:49.931Z,5.63
2022-08-16T23:34:21.610Z,5.60
2022-08-16T23:36:49.099Z,5.53
2022-08-16T23:39:16.395Z,5.63
2022-08-16T23:41:44.565Z,6.10
2022-08-16T23:44:44.148Z,5.07
2022-08-16T23:46:59.711Z,5.30
2022-08-16T23:49:56.621Z,5.35
2022-08-16T23:52:14.587Z,5.53
2022-08-16T23:54:41.838Z,5.32
2022-08-16T23:57:09.081Z,5.35
2022-08-16T23:59:48.529Z,5.55
